sensor_id;sensor_type;location;lat;lon;timestamp;temperature;humidity
85036;DHT22;75357;49.780;9.448;2024-02-04T00:00:25;9.90;80.00
85036;DHT22;75357;49.780;9.448;2024-02-04T00:02:53;9.90;80.00
85036;DHT22;75357;49.780;9.448;2024-02-04T00:05:22;9.90;80.00
85036;DHT22;75357;49.780;9.448;2024-02-04T00:07:51;9.90;79.70
85036;DHT22;75357;49.780;9.448;2024-02-04T00:10:19;9.90;79.90
85036;DHT22;75357;49.780;9.448;2024-02-04T00:12:48;9.90;79.90
85036;DHT22;75357;49.780;9.448;2024-02-04T00:15:19;9.90;79.90
85036;DHT22;75357;49.780;9.448;2024-02-04T00:17:48;10.00;78.90
85036;DHT22;75357;49.780;9.448;2024-02-04T00:20:17;10.00;78.80
85036;DHT22;75357;49.780;9.448;2024-02-04T00:22:45;10.00;78.80
85036;DHT22;75357;49.780;9.448;2024-02-04T00:25:15;10.00;78.70
85036;DHT22;75357;49.780;9.448;2024-02-04T00:27:46;10.00;78.80
85036;DHT22;75357;49.780;9.448;2024-02-04T00:30:15;10.00;78.70
85036;DHT22;75357;49.780;9.448;2024-02-04T00:32:45;9.90;79.70
85036;DHT22;75357;49.780;9.448;2024-02-04T00:35:14;10.00;78.90
85036;DHT22;75357;49.780;9.448;2024-02-04T00:37:42;10.00;78.80
85036;DHT22;75357;49.780;9.448;2024-02-04T00:40:11;10.00;78.80
85036;DHT22;75357;49.780;9.448;2024-02-04T00:42:40;10.00;78.70
85036;DHT22;75357;49.780;9.448;2024-02-04T00:45:09;10.00;78.70
85036;DHT22;75357;49.780;9.448;2024-02-04T00:47:37;10.00;78.80
85036;DHT22;75357;49.780;9.448;2024-02-04T00:50:08;10.00;79.00
85036;DHT22;75357;49.780;9.448;2024-02-04T00:52:39;10.00;78.70
85036;DHT22;75357;49.780;9.448;2024-02-04T00:55:08;10.00;78.80
85036;DHT22;75357;49.780;9.448;2024-02-04T00:57:36;10.00;78.90
85036;DHT22;75357;49.780;9.448;2024-02-04T01:00:06;10.00;78.90
85036;DHT22;75357;49.780;9.448;2024-02-04T01:02:36;10.00;78.70
85036;DHT22;75357;49.780;9.448;2024-02-04T01:05:07;10.00;78.70
85036;DHT22;75357;49.780;9.448;2024-02-04T01:07:36;10.00;79.00
85036;DHT22;75357;49.780;9.448;2024-02-04T01:10:06;10.00;78.90
85036;DHT22;75357;49.780;9.448;2024-02-04T01:12:37;10.00;78.80
85036;DHT22;75357;49.780;9.448;2024-02-04T01:15:06;10.00;78.80
85036;DHT22;75357;49.780;9.448;2024-02-04T01:17:35;10.00;78.80
85036;DHT22;75357;49.780;9.448;2024-02-04T01:20:04;10.00;78.80
85036;DHT22;75357;49.780;9.448;2024-02-04T01:22:34;10.00;78.70
85036;DHT22;75357;49.780;9.448;2024-02-04T01:25:03;10.00;78.80
85036;DHT22;75357;49.780;9.448;2024-02-04T01:27:34;10.00;78.60
85036;DHT22;75357;49.780;9.448;2024-02-04T01:30:03;10.10;78.50
85036;DHT22;75357;49.780;9.448;2024-02-04T01:32:31;10.00;78.50
85036;DHT22;75357;49.780;9.448;2024-02-04T01:35:00;9.90;79.80
85036;DHT22;75357;49.780;9.448;2024-02-04T01:37:29;10.00;78.70
85036;DHT22;75357;49.780;9.448;2024-02-04T01:39:58;10.00;78.80
85036;DHT22;75357;49.780;9.448;2024-02-04T01:42:29;9.90;80.00
85036;DHT22;75357;49.780;9.448;2024-02-04T01:44:58;10.00;78.70
85036;DHT22;75357;49.780;9.448;2024-02-04T01:47:28;10.00;78.50
85036;DHT22;75357;49.780;9.448;2024-02-04T01:49:56;10.10;78.30
85036;DHT22;75357;49.780;9.448;2024-02-04T01:52:27;10.10;78.30
85036;DHT22;75357;49.780;9.448;2024-02-04T01:54:55;10.10;78.30
85036;DHT22;75357;49.780;9.448;2024-02-04T01:57:27;10.00;78.40
85036;DHT22;75357;49.780;9.448;2024-02-04T01:59:56;10.00;78.50
85036;DHT22;75357;49.780;9.448;2024-02-04T02:02:25;10.00;78.50
85036;DHT22;75357;49.780;9.448;2024-02-04T02:04:54;10.00;78.50
85036;DHT22;75357;49.780;9.448;2024-02-04T02:07:23;9.90;79.70
85036;DHT22;75357;49.780;9.448;2024-02-04T02:09:54;10.00;78.50
85036;DHT22;75357;49.780;9.448;2024-02-04T02:12:27;10.00;78.40
85036;DHT22;75357;49.780;9.448;2024-02-04T02:15:02;10.00;78.30
85036;DHT22;75357;49.780;9.448;2024-02-04T02:17:38;10.00;78.40
85036;DHT22;75357;49.780;9.448;2024-02-04T02:20:18;10.00;79.00
85036;DHT22;75357;49.780;9.448;2024-02-04T02:22:57;10.00;78.40
85036;DHT22;75357;49.780;9.448;2024-02-04T02:25:31;10.00;78.30
85036;DHT22;75357;49.780;9.448;2024-02-04T02:28:00;10.00;78.40
85036;DHT22;75357;49.780;9.448;2024-02-04T02:30:28;10.10;78.30
85036;DHT22;75357;49.780;9.448;2024-02-04T02:32:57;10.00;78.40
85036;DHT22;75357;49.780;9.448;2024-02-04T02:35:26;10.00;78.80
85036;DHT22;75357;49.780;9.448;2024-02-04T02:37:59;9.90;79.80
85036;DHT22;75357;49.780;9.448;2024-02-04T02:40:37;9.80;80.20
85036;DHT22;75357;49.780;9.448;2024-02-04T02:43:07;9.90;80.30
85036;DHT22;75357;49.780;9.448;2024-02-04T02:45:39;9.90;80.30
85036;DHT22;75357;49.780;9.448;2024-02-04T02:48:10;9.90;80.20
85036;DHT22;75357;49.780;9.448;2024-02-04T02:50:39;9.90;80.80
85036;DHT22;75357;49.780;9.448;2024-02-04T02:53:07;9.90;81.30
85036;DHT22;75357;49.780;9.448;2024-02-04T02:55:38;9.80;82.30
85036;DHT22;75357;49.780;9.448;2024-02-04T02:58:07;9.60;83.00
85036;DHT22;75357;49.780;9.448;2024-02-04T03:00:36;9.50;84.40
85036;DHT22;75357;49.780;9.448;2024-02-04T03:03:05;9.50;84.80
85036;DHT22;75357;49.780;9.448;2024-02-04T03:05:34;9.50;83.90
85036;DHT22;75357;49.780;9.448;2024-02-04T03:08:03;9.50;83.80
85036;DHT22;75357;49.780;9.448;2024-02-04T03:10:32;9.40;84.20
85036;DHT22;75357;49.780;9.448;2024-02-04T03:13:02;9.40;84.00
85036;DHT22;75357;49.780;9.448;2024-02-04T03:15:31;9.40;84.10
85036;DHT22;75357;49.780;9.448;2024-02-04T03:18:00;9.40;84.50
85036;DHT22;75357;49.780;9.448;2024-02-04T03:20:33;9.40;84.40
85036;DHT22;75357;49.780;9.448;2024-02-04T03:23:02;9.40;84.20
85036;DHT22;75357;49.780;9.448;2024-02-04T03:25:30;9.40;83.70
85036;DHT22;75357;49.780;9.448;2024-02-04T03:27:59;9.50;83.20
85036;DHT22;75357;49.780;9.448;2024-02-04T03:30:29;9.40;83.10
85036;DHT22;75357;49.780;9.448;2024-02-04T03:32:58;9.50;83.10
85036;DHT22;75357;49.780;9.448;2024-02-04T03:35:27;9.50;82.90
85036;DHT22;75357;49.780;9.448;2024-02-04T03:37:55;9.50;83.10
85036;DHT22;75357;49.780;9.448;2024-02-04T03:40:24;9.50;83.00
85036;DHT22;75357;49.780;9.448;2024-02-04T03:42:52;9.50;82.90
85036;DHT22;75357;49.780;9.448;2024-02-04T03:45:21;9.50;83.00
85036;DHT22;75357;49.780;9.448;2024-02-04T03:47:51;9.50;82.90
85036;DHT22;75357;49.780;9.448;2024-02-04T03:50:20;9.40;83.20
85036;DHT22;75357;49.780;9.448;2024-02-04T03:52:49;9.40;83.30
85036;DHT22;75357;49.780;9.448;2024-02-04T03:55:17;9.40;84.60
85036;DHT22;75357;49.780;9.448;2024-02-04T03:57:47;9.40;84.40
85036;DHT22;75357;49.780;9.448;2024-02-04T04:00:16;9.30;84.90
85036;DHT22;75357;49.780;9.448;2024-02-04T04:02:44;9.20;85.10
85036;DHT22;75357;49.780;9.448;2024-02-04T04:05:14;9.30;85.30
85036;DHT22;75357;49.780;9.448;2024-02-04T04:07:44;9.30;85.40
85036;DHT22;75357;49.780;9.448;2024-02-04T04:10:12;9.30;85.50
85036;DHT22;75357;49.780;9.448;2024-02-04T04:12:41;9.30;85.10
85036;DHT22;75357;49.780;9.448;2024-02-04T04:15:10;9.30;84.60
85036;DHT22;75357;49.780;9.448;2024-02-04T04:17:38;9.30;84.60
85036;DHT22;75357;49.780;9.448;2024-02-04T04:20:08;9.30;84.30
85036;DHT22;75357;49.780;9.448;2024-02-04T04:22:40;9.30;84.00
85036;DHT22;75357;49.780;9.448;2024-02-04T04:25:09;9.30;84.10
85036;DHT22;75357;49.780;9.448;2024-02-04T04:27:38;9.40;84.10
85036;DHT22;75357;49.780;9.448;2024-02-04T04:30:07;9.30;84.00
85036;DHT22;75357;49.780;9.448;2024-02-04T04:32:36;9.30;84.40
85036;DHT22;75357;49.780;9.448;2024-02-04T04:35:05;9.30;84.60
85036;DHT22;75357;49.780;9.448;2024-02-04T04:37:34;9.30;85.00
85036;DHT22;75357;49.780;9.448;2024-02-04T04:40:06;9.10;85.20
85036;DHT22;75357;49.780;9.448;2024-02-04T04:42:34;9.20;85.30
85036;DHT22;75357;49.780;9.448;2024-02-04T04:45:04;9.10;85.50
85036;DHT22;75357;49.780;9.448;2024-02-04T04:47:32;9.10;85.90
85036;DHT22;75357;49.780;9.448;2024-02-04T04:50:01;9.20;85.70
85036;DHT22;75357;49.780;9.448;2024-02-04T04:52:30;9.20;85.90
85036;DHT22;75357;49.780;9.448;2024-02-04T04:54:58;9.10;85.90
85036;DHT22;75357;49.780;9.448;2024-02-04T04:57:28;9.10;86.40
85036;DHT22;75357;49.780;9.448;2024-02-04T04:59:57;9.00;86.20
85036;DHT22;75357;49.780;9.448;2024-02-04T05:02:33;9.10;86.70
85036;DHT22;75357;49.780;9.448;2024-02-04T05:05:02;9.10;86.10
85036;DHT22;75357;49.780;9.448;2024-02-04T05:07:31;9.10;86.10
85036;DHT22;75357;49.780;9.448;2024-02-04T05:10:00;9.10;86.20
85036;DHT22;75357;49.780;9.448;2024-02-04T05:12:30;9.10;85.90
85036;DHT22;75357;49.780;9.448;2024-02-04T05:14:59;9.20;85.60
85036;DHT22;75357;49.780;9.448;2024-02-04T05:17:28;9.20;85.40
85036;DHT22;75357;49.780;9.448;2024-02-04T05:19:57;9.10;85.10
85036;DHT22;75357;49.780;9.448;2024-02-04T05:22:26;9.10;85.30
85036;DHT22;75357;49.780;9.448;2024-02-04T05:24:54;9.20;85.00
85036;DHT22;75357;49.780;9.448;2024-02-04T05:27:23;9.20;85.20
85036;DHT22;75357;49.780;9.448;2024-02-04T05:29:53;9.20;84.70
85036;DHT22;75357;49.780;9.448;2024-02-04T05:32:21;9.30;84.70
85036;DHT22;75357;49.780;9.448;2024-02-04T05:34:50;9.20;84.30
85036;DHT22;75357;49.780;9.448;2024-02-04T05:37:19;9.30;84.20
85036;DHT22;75357;49.780;9.448;2024-02-04T05:39:47;9.30;83.60
85036;DHT22;75357;49.780;9.448;2024-02-04T05:42:16;9.30;83.30
85036;DHT22;75357;49.780;9.448;2024-02-04T05:44:44;9.40;83.30
85036;DHT22;75357;49.780;9.448;2024-02-04T05:47:14;9.40;83.70
85036;DHT22;75357;49.780;9.448;2024-02-04T05:49:44;9.40;83.40
85036;DHT22;75357;49.780;9.448;2024-02-04T05:52:14;9.40;83.70
85036;DHT22;75357;49.780;9.448;2024-02-04T05:54:42;9.40;83.50
85036;DHT22;75357;49.780;9.448;2024-02-04T05:57:11;9.40;83.10
85036;DHT22;75357;49.780;9.448;2024-02-04T05:59:41;9.50;83.10
85036;DHT22;75357;49.780;9.448;2024-02-04T06:02:11;9.40;82.90
85036;DHT22;75357;49.780;9.448;2024-02-04T06:04:41;9.50;82.80
85036;DHT22;75357;49.780;9.448;2024-02-04T06:07:10;9.60;82.60
85036;DHT22;75357;49.780;9.448;2024-02-04T06:09:39;9.60;82.60
85036;DHT22;75357;49.780;9.448;2024-02-04T06:12:07;9.60;82.80
85036;DHT22;75357;49.780;9.448;2024-02-04T06:14:36;9.60;83.10
85036;DHT22;75357;49.780;9.448;2024-02-04T06:17:07;9.60;83.20
85036;DHT22;75357;49.780;9.448;2024-02-04T06:19:37;9.60;82.90
85036;DHT22;75357;49.780;9.448;2024-02-04T06:22:08;9.60;82.80
85036;DHT22;75357;49.780;9.448;2024-02-04T06:24:36;9.50;82.80
85036;DHT22;75357;49.780;9.448;2024-02-04T06:27:08;9.50;83.10
85036;DHT22;75357;49.780;9.448;2024-02-04T06:29:36;9.60;82.90
85036;DHT22;75357;49.780;9.448;2024-02-04T06:32:06;9.60;82.60
85036;DHT22;75357;49.780;9.448;2024-02-04T06:34:35;9.60;82.90
85036;DHT22;75357;49.780;9.448;2024-02-04T06:37:03;9.50;82.80
85036;DHT22;75357;49.780;9.448;2024-02-04T06:39:34;9.50;82.90
85036;DHT22;75357;49.780;9.448;2024-02-04T06:42:03;9.50;82.90
85036;DHT22;75357;49.780;9.448;2024-02-04T06:44:32;9.50;82.70
85036;DHT22;75357;49.780;9.448;2024-02-04T06:47:00;9.50;82.90
85036;DHT22;75357;49.780;9.448;2024-02-04T06:49:29;9.50;82.90
85036;DHT22;75357;49.780;9.448;2024-02-04T06:51:57;9.60;83.10
85036;DHT22;75357;49.780;9.448;2024-02-04T06:54:27;9.70;82.80
85036;DHT22;75357;49.780;9.448;2024-02-04T06:56:57;9.60;82.50
85036;DHT22;75357;49.780;9.448;2024-02-04T06:59:25;9.60;82.30
85036;DHT22;75357;49.780;9.448;2024-02-04T07:01:54;9.60;82.50
85036;DHT22;75357;49.780;9.448;2024-02-04T07:04:22;9.60;82.30
85036;DHT22;75357;49.780;9.448;2024-02-04T07:06:51;9.60;82.10
85036;DHT22;75357;49.780;9.448;2024-02-04T07:09:20;9.70;82.30
85036;DHT22;75357;49.780;9.448;2024-02-04T07:11:48;9.70;82.10
85036;DHT22;75357;49.780;9.448;2024-02-04T07:14:18;9.80;81.90
85036;DHT22;75357;49.780;9.448;2024-02-04T07:16:47;9.70;81.80
85036;DHT22;75357;49.780;9.448;2024-02-04T07:19:15;9.60;82.50
85036;DHT22;75357;49.780;9.448;2024-02-04T07:21:44;9.70;82.50
85036;DHT22;75357;49.780;9.448;2024-02-04T07:24:14;9.70;82.60
85036;DHT22;75357;49.780;9.448;2024-02-04T07:26:43;9.50;82.80
85036;DHT22;75357;49.780;9.448;2024-02-04T07:29:12;9.50;83.10
85036;DHT22;75357;49.780;9.448;2024-02-04T07:31:42;9.50;82.60
85036;DHT22;75357;49.780;9.448;2024-02-04T07:34:10;9.60;82.90
85036;DHT22;75357;49.780;9.448;2024-02-04T07:36:39;9.60;82.30
85036;DHT22;75357;49.780;9.448;2024-02-04T07:39:08;9.60;82.80
85036;DHT22;75357;49.780;9.448;2024-02-04T07:41:37;9.60;82.20
85036;DHT22;75357;49.780;9.448;2024-02-04T07:44:06;9.60;82.50
85036;DHT22;75357;49.780;9.448;2024-02-04T07:46:35;9.60;82.10
85036;DHT22;75357;49.780;9.448;2024-02-04T07:49:06;9.60;82.50
85036;DHT22;75357;49.780;9.448;2024-02-04T07:51:35;9.60;82.10
85036;DHT22;75357;49.780;9.448;2024-02-04T07:54:05;9.50;82.10
85036;DHT22;75357;49.780;9.448;2024-02-04T07:56:33;9.60;82.50
85036;DHT22;75357;49.780;9.448;2024-02-04T07:59:03;9.60;82.40
85036;DHT22;75357;49.780;9.448;2024-02-04T08:01:31;9.50;82.70
85036;DHT22;75357;49.780;9.448;2024-02-04T08:04:00;9.40;83.20
85036;DHT22;75357;49.780;9.448;2024-02-04T08:06:31;9.40;83.80
85036;DHT22;75357;49.780;9.448;2024-02-04T08:09:02;9.40;83.90
85036;DHT22;75357;49.780;9.448;2024-02-04T08:11:30;9.40;84.00
85036;DHT22;75357;49.780;9.448;2024-02-04T08:13:59;9.50;83.90
85036;DHT22;75357;49.780;9.448;2024-02-04T08:16:28;9.60;83.20
85036;DHT22;75357;49.780;9.448;2024-02-04T08:18:57;9.60;82.80
85036;DHT22;75357;49.780;9.448;2024-02-04T08:21:26;9.60;82.20
85036;DHT22;75357;49.780;9.448;2024-02-04T08:23:56;9.50;82.50
85036;DHT22;75357;49.780;9.448;2024-02-04T08:26:24;9.50;82.70
85036;DHT22;75357;49.780;9.448;2024-02-04T08:28:52;9.50;82.50
85036;DHT22;75357;49.780;9.448;2024-02-04T08:31:22;9.50;82.20
85036;DHT22;75357;49.780;9.448;2024-02-04T08:33:50;9.50;82.30
85036;DHT22;75357;49.780;9.448;2024-02-04T08:36:20;9.50;82.50
85036;DHT22;75357;49.780;9.448;2024-02-04T08:38:49;9.60;82.90
85036;DHT22;75357;49.780;9.448;2024-02-04T08:41:19;9.50;82.90
85036;DHT22;75357;49.780;9.448;2024-02-04T08:43:48;9.50;83.80
85036;DHT22;75357;49.780;9.448;2024-02-04T08:46:17;9.50;83.10
85036;DHT22;75357;49.780;9.448;2024-02-04T08:48:46;9.50;83.40
85036;DHT22;75357;49.780;9.448;2024-02-04T08:51:14;9.50;82.90
85036;DHT22;75357;49.780;9.448;2024-02-04T08:53:43;9.50;82.20
85036;DHT22;75357;49.780;9.448;2024-02-04T08:56:12;9.60;82.70
85036;DHT22;75357;49.780;9.448;2024-02-04T08:58:42;9.60;81.80
85036;DHT22;75357;49.780;9.448;2024-02-04T09:01:10;9.70;81.60
85036;DHT22;75357;49.780;9.448;2024-02-04T09:03:40;9.60;81.50
85036;DHT22;75357;49.780;9.448;2024-02-04T09:06:09;9.50;82.10
85036;DHT22;75357;49.780;9.448;2024-02-04T09:08:38;9.60;81.90
85036;DHT22;75357;49.780;9.448;2024-02-04T09:11:07;9.70;81.60
85036;DHT22;75357;49.780;9.448;2024-02-04T09:13:35;9.80;81.40
85036;DHT22;75357;49.780;9.448;2024-02-04T09:16:06;9.70;81.30
85036;DHT22;75357;49.780;9.448;2024-02-04T09:18:36;9.60;81.10
85036;DHT22;75357;49.780;9.448;2024-02-04T09:21:05;9.70;80.90
85036;DHT22;75357;49.780;9.448;2024-02-04T09:23:35;9.70;82.20
85036;DHT22;75357;49.780;9.448;2024-02-04T09:26:05;9.70;81.70
85036;DHT22;75357;49.780;9.448;2024-02-04T09:28:34;9.80;81.40
85036;DHT22;75357;49.780;9.448;2024-02-04T09:31:07;9.80;81.20
85036;DHT22;75357;49.780;9.448;2024-02-04T09:33:36;9.90;80.60
85036;DHT22;75357;49.780;9.448;2024-02-04T09:36:08;9.90;80.30
85036;DHT22;75357;49.780;9.448;2024-02-04T09:38:37;9.80;80.30
85036;DHT22;75357;49.780;9.448;2024-02-04T09:41:06;9.80;80.30
85036;DHT22;75357;49.780;9.448;2024-02-04T09:43:36;9.90;80.50
85036;DHT22;75357;49.780;9.448;2024-02-04T09:46:07;10.00;79.40
85036;DHT22;75357;49.780;9.448;2024-02-04T09:48:36;9.90;81.00
85036;DHT22;75357;49.780;9.448;2024-02-04T09:51:08;9.80;80.50
85036;DHT22;75357;49.780;9.448;2024-02-04T09:53:42;9.70;82.10
85036;DHT22;75357;49.780;9.448;2024-02-04T09:56:12;9.70;83.00
85036;DHT22;75357;49.780;9.448;2024-02-04T09:58:45;9.90;82.10
85036;DHT22;75357;49.780;9.448;2024-02-04T10:01:16;9.90;80.80
85036;DHT22;75357;49.780;9.448;2024-02-04T10:03:47;9.90;80.10
85036;DHT22;75357;49.780;9.448;2024-02-04T10:06:16;10.00;79.00
85036;DHT22;75357;49.780;9.448;2024-02-04T10:08:45;10.00;78.30
85036;DHT22;75357;49.780;9.448;2024-02-04T10:11:15;10.00;78.60
85036;DHT22;75357;49.780;9.448;2024-02-04T10:13:44;10.10;78.30
85036;DHT22;75357;49.780;9.448;2024-02-04T10:16:15;10.20;78.00
85036;DHT22;75357;49.780;9.448;2024-02-04T10:18:47;10.30;78.00
85036;DHT22;75357;49.780;9.448;2024-02-04T10:21:17;10.20;78.60
85036;DHT22;75357;49.780;9.448;2024-02-04T10:23:47;10.00;79.20
85036;DHT22;75357;49.780;9.448;2024-02-04T10:26:17;10.00;79.10
85036;DHT22;75357;49.780;9.448;2024-02-04T10:28:48;10.20;78.70
85036;DHT22;75357;49.780;9.448;2024-02-04T10:31:18;10.30;78.10
85036;DHT22;75357;49.780;9.448;2024-02-04T10:33:47;10.40;77.10
85036;DHT22;75357;49.780;9.448;2024-02-04T10:36:16;10.50;77.60
85036;DHT22;75357;49.780;9.448;2024-02-04T10:38:46;10.50;77.00
85036;DHT22;75357;49.780;9.448;2024-02-04T10:41:15;10.50;77.20
85036;DHT22;75357;49.780;9.448;2024-02-04T10:43:44;10.60;76.80
85036;DHT22;75357;49.780;9.448;2024-02-04T10:46:18;10.40;76.50
85036;DHT22;75357;49.780;9.448;2024-02-04T10:48:52;10.60;77.00
85036;DHT22;75357;49.780;9.448;2024-02-04T10:51:25;10.60;76.30
85036;DHT22;75357;49.780;9.448;2024-02-04T10:53:55;10.60;77.00
85036;DHT22;75357;49.780;9.448;2024-02-04T10:56:29;10.60;76.30
85036;DHT22;75357;49.780;9.448;2024-02-04T10:58:58;10.60;77.00
85036;DHT22;75357;49.780;9.448;2024-02-04T11:01:32;10.60;76.40
85036;DHT22;75357;49.780;9.448;2024-02-04T11:04:02;10.60;76.40
85036;DHT22;75357;49.780;9.448;2024-02-04T11:06:33;10.80;75.80
85036;DHT22;75357;49.780;9.448;2024-02-04T11:09:03;10.80;77.30
85036;DHT22;75357;49.780;9.448;2024-02-04T11:11:33;10.90;76.50
85036;DHT22;75357;49.780;9.448;2024-02-04T11:14:04;10.80;75.40
85036;DHT22;75357;49.780;9.448;2024-02-04T11:16:58;10.70;75.80
85036;DHT22;75357;49.780;9.448;2024-02-04T11:19:37;10.70;76.40
85036;DHT22;75357;49.780;9.448;2024-02-04T11:22:24;10.60;76.40
85036;DHT22;75357;49.780;9.448;2024-02-04T11:25:24;10.50;76.00
85036;DHT22;75357;49.780;9.448;2024-02-04T11:27:56;10.70;75.90
85036;DHT22;75357;49.780;9.448;2024-02-04T11:30:25;10.70;76.40
85036;DHT22;75357;49.780;9.448;2024-02-04T11:33:00;10.80;76.20
85036;DHT22;75357;49.780;9.448;2024-02-04T11:35:29;10.80;75.00
85036;DHT22;75357;49.780;9.448;2024-02-04T11:37:58;10.70;75.20
85036;DHT22;75357;49.780;9.448;2024-02-04T11:40:34;10.80;75.30
85036;DHT22;75357;49.780;9.448;2024-02-04T11:43:05;10.70;75.40
85036;DHT22;75357;49.780;9.448;2024-02-04T11:45:37;10.70;75.60
85036;DHT22;75357;49.780;9.448;2024-02-04T11:48:09;10.70;76.00
85036;DHT22;75357;49.780;9.448;2024-02-04T11:50:39;10.70;75.80
85036;DHT22;75357;49.780;9.448;2024-02-04T11:53:09;10.60;76.20
85036;DHT22;75357;49.780;9.448;2024-02-04T11:55:39;10.60;76.00
85036;DHT22;75357;49.780;9.448;2024-02-04T11:58:12;10.70;75.70
85036;DHT22;75357;49.780;9.448;2024-02-04T12:00:43;10.60;75.90
85036;DHT22;75357;49.780;9.448;2024-02-04T12:03:14;10.60;76.40
85036;DHT22;75357;49.780;9.448;2024-02-04T12:05:43;10.60;76.00
85036;DHT22;75357;49.780;9.448;2024-02-04T12:08:13;10.70;75.70
85036;DHT22;75357;49.780;9.448;2024-02-04T12:10:42;10.60;75.70
85036;DHT22;75357;49.780;9.448;2024-02-04T12:13:11;10.70;76.00
85036;DHT22;75357;49.780;9.448;2024-02-04T12:15:41;10.60;76.00
85036;DHT22;75357;49.780;9.448;2024-02-04T12:18:13;10.50;76.00
85036;DHT22;75357;49.780;9.448;2024-02-04T12:20:47;10.50;76.40
85036;DHT22;75357;49.780;9.448;2024-02-04T12:23:17;10.60;76.40
85036;DHT22;75357;49.780;9.448;2024-02-04T12:25:46;10.60;76.40
85036;DHT22;75357;49.780;9.448;2024-02-04T12:28:15;10.70;76.10
85036;DHT22;75357;49.780;9.448;2024-02-04T12:30:53;10.60;76.10
85036;DHT22;75357;49.780;9.448;2024-02-04T12:33:24;10.60;76.60
85036;DHT22;75357;49.780;9.448;2024-02-04T12:35:53;10.60;76.20
85036;DHT22;75357;49.780;9.448;2024-02-04T12:38:23;10.70;76.10
85036;DHT22;75357;49.780;9.448;2024-02-04T12:41:00;10.70;76.10
85036;DHT22;75357;49.780;9.448;2024-02-04T12:43:29;10.60;76.60
85036;DHT22;75357;49.780;9.448;2024-02-04T12:45:58;10.70;76.10
85036;DHT22;75357;49.780;9.448;2024-02-04T12:48:29;10.60;76.40
85036;DHT22;75357;49.780;9.448;2024-02-04T12:50:58;10.50;76.70
85036;DHT22;75357;49.780;9.448;2024-02-04T12:53:30;10.60;76.90
85036;DHT22;75357;49.780;9.448;2024-02-04T12:55:59;10.50;76.70
85036;DHT22;75357;49.780;9.448;2024-02-04T12:58:28;10.60;76.90
85036;DHT22;75357;49.780;9.448;2024-02-04T13:01:00;10.80;76.70
85036;DHT22;75357;49.780;9.448;2024-02-04T13:03:31;10.70;76.40
85036;DHT22;75357;49.780;9.448;2024-02-04T13:06:00;10.60;77.00
85036;DHT22;75357;49.780;9.448;2024-02-04T13:08:29;10.60;77.20
85036;DHT22;75357;49.780;9.448;2024-02-04T13:10:59;10.60;76.80
85036;DHT22;75357;49.780;9.448;2024-02-04T13:13:28;10.60;77.50
85036;DHT22;75357;49.780;9.448;2024-02-04T13:15:57;10.60;77.00
85036;DHT22;75357;49.780;9.448;2024-02-04T13:18:26;10.60;76.50
85036;DHT22;75357;49.780;9.448;2024-02-04T13:20:57;10.60;76.80
85036;DHT22;75357;49.780;9.448;2024-02-04T13:23:25;10.70;76.50
85036;DHT22;75357;49.780;9.448;2024-02-04T13:25:54;10.80;76.10
85036;DHT22;75357;49.780;9.448;2024-02-04T13:28:24;10.80;75.70
85036;DHT22;75357;49.780;9.448;2024-02-04T13:30:57;10.80;75.70
85036;DHT22;75357;49.780;9.448;2024-02-04T13:33:27;10.80;75.60
85036;DHT22;75357;49.780;9.448;2024-02-04T13:35:59;10.90;75.60
85036;DHT22;75357;49.780;9.448;2024-02-04T13:38:28;10.90;75.30
85036;DHT22;75357;49.780;9.448;2024-02-04T13:40:58;11.00;75.00
85036;DHT22;75357;49.780;9.448;2024-02-04T13:43:28;10.90;75.20
85036;DHT22;75357;49.780;9.448;2024-02-04T13:45:59;10.80;75.40
85036;DHT22;75357;49.780;9.448;2024-02-04T13:48:30;10.80;75.40
85036;DHT22;75357;49.780;9.448;2024-02-04T13:51:05;10.80;76.50
85036;DHT22;75357;49.780;9.448;2024-02-04T13:53:35;10.80;75.40
85036;DHT22;75357;49.780;9.448;2024-02-04T13:56:05;10.90;75.60
85036;DHT22;75357;49.780;9.448;2024-02-04T13:58:44;10.80;75.40
85036;DHT22;75357;49.780;9.448;2024-02-04T14:01:13;10.80;75.30
85036;DHT22;75357;49.780;9.448;2024-02-04T14:03:43;10.80;75.60
85036;DHT22;75357;49.780;9.448;2024-02-04T14:06:13;10.80;75.90
85036;DHT22;75357;49.780;9.448;2024-02-04T14:08:42;10.80;75.60
85036;DHT22;75357;49.780;9.448;2024-02-04T14:11:10;10.80;76.00
85036;DHT22;75357;49.780;9.448;2024-02-04T14:13:39;10.90;75.80
85036;DHT22;75357;49.780;9.448;2024-02-04T14:16:07;10.90;75.50
85036;DHT22;75357;49.780;9.448;2024-02-04T14:18:37;10.90;75.40
85036;DHT22;75357;49.780;9.448;2024-02-04T14:21:08;10.90;75.80
85036;DHT22;75357;49.780;9.448;2024-02-04T14:23:38;10.80;76.00
85036;DHT22;75357;49.780;9.448;2024-02-04T14:26:07;10.80;76.20
85036;DHT22;75357;49.780;9.448;2024-02-04T14:28:35;10.80;75.90
85036;DHT22;75357;49.780;9.448;2024-02-04T14:31:08;10.80;75.70
85036;DHT22;75357;49.780;9.448;2024-02-04T14:33:37;10.80;76.00
85036;DHT22;75357;49.780;9.448;2024-02-04T14:36:07;10.80;76.30
85036;DHT22;75357;49.780;9.448;2024-02-04T14:38:38;10.80;76.20
85036;DHT22;75357;49.780;9.448;2024-02-04T14:41:07;10.80;76.30
85036;DHT22;75357;49.780;9.448;2024-02-04T14:43:36;10.90;76.20
85036;DHT22;75357;49.780;9.448;2024-02-04T14:46:06;10.80;75.80
85036;DHT22;75357;49.780;9.448;2024-02-04T14:48:36;10.80;76.00
85036;DHT22;75357;49.780;9.448;2024-02-04T14:51:10;10.90;75.70
85036;DHT22;75357;49.780;9.448;2024-02-04T14:53:40;10.90;75.60
85036;DHT22;75357;49.780;9.448;2024-02-04T14:56:09;11.00;76.00
85036;DHT22;75357;49.780;9.448;2024-02-04T14:58:37;11.00;75.60
85036;DHT22;75357;49.780;9.448;2024-02-04T15:01:06;11.10;75.50
85036;DHT22;75357;49.780;9.448;2024-02-04T15:03:36;11.00;75.70
85036;DHT22;75357;49.780;9.448;2024-02-04T15:06:05;11.00;75.50
85036;DHT22;75357;49.780;9.448;2024-02-04T15:08:34;11.00;75.70
85036;DHT22;75357;49.780;9.448;2024-02-04T15:11:05;11.00;75.50
85036;DHT22;75357;49.780;9.448;2024-02-04T15:13:35;11.00;75.60
85036;DHT22;75357;49.780;9.448;2024-02-04T15:16:04;11.00;75.60
85036;DHT22;75357;49.780;9.448;2024-02-04T15:18:35;11.00;76.00
85036;DHT22;75357;49.780;9.448;2024-02-04T15:21:04;11.00;75.90
85036;DHT22;75357;49.780;9.448;2024-02-04T15:23:33;11.00;76.00
85036;DHT22;75357;49.780;9.448;2024-02-04T15:26:07;11.00;75.90
85036;DHT22;75357;49.780;9.448;2024-02-04T15:28:41;11.00;76.00
85036;DHT22;75357;49.780;9.448;2024-02-04T15:31:11;11.00;76.00
85036;DHT22;75357;49.780;9.448;2024-02-04T15:33:40;11.00;76.00
85036;DHT22;75357;49.780;9.448;2024-02-04T15:36:09;11.00;76.10
85036;DHT22;75357;49.780;9.448;2024-02-04T15:38:39;10.90;76.00
85036;DHT22;75357;49.780;9.448;2024-02-04T15:41:10;11.00;76.20
85036;DHT22;75357;49.780;9.448;2024-02-04T15:43:40;11.00;76.40
85036;DHT22;75357;49.780;9.448;2024-02-04T15:46:09;11.00;76.40
85036;DHT22;75357;49.780;9.448;2024-02-04T15:48:41;11.00;76.40
85036;DHT22;75357;49.780;9.448;2024-02-04T15:51:13;11.00;76.70
85036;DHT22;75357;49.780;9.448;2024-02-04T15:53:42;11.00;76.70